Time;durP1;ratioP1;P1;durP2;ratioP2;P2;SDS_P1;SDS_P2;PMS_P1;PMS_P2;Temp;Humidity;BMP_temperature;BMP_pressure;BME280_temperature;BME280_humidity;BME280_pressure;Samples;Min_cycle;Max_cycle;Signal;HPM_P1;HPM_P2
2021/04/04 00:00:01;;;;;;;39.50;19.35;;;;;;;5.14;59.56;99436.89;1797174;77;21545;-48
2021/04/04 00:02:31;;;;;;;39.42;20.20;;;;;;;4.89;60.25;99442.63;1801057;77;22811;-48
2021/04/04 00:09:01;;;;;;;32.13;17.07;;;;;;;4.33;61.79;99438.13;1752168;79;22892;-49
2021/04/04 00:11:30;;;;;;;28.27;14.90;;;;;;;4.34;62.26;99443.02;1715679;82;21260;-46
2021/04/04 00:13:58;;;;;;;29.37;18.40;;;;;;;4.40;62.35;99437.48;1693986;83;22034;-48
2021/04/04 00:16:28;;;;;;;38.17;17.73;;;;;;;4.47;62.50;99437.70;1694551;82;21014;-49
2021/04/04 00:18:56;;;;;;;37.90;20.75;;;;;;;4.53;62.59;99440.20;1697948;82;21065;-47
2021/04/04 00:21:24;;;;;;;38.50;19.75;;;;;;;4.58;62.66;99442.28;1698522;83;20962;-49
2021/04/04 00:23:52;;;;;;;31.60;18.23;;;;;;;4.62;62.70;99449.25;1693341;82;20989;-48
2021/04/04 00:26:21;;;;;;;31.85;17.57;;;;;;;4.66;62.79;99455.38;1693228;83;21381;-47
2021/04/04 00:28:50;;;;;;;41.28;20.90;;;;;;;4.67;62.80;99453.98;1691978;83;21689;-48
2021/04/04 00:31:22;;;;;;;31.65;17.10;;;;;;;4.67;62.56;99457.99;1695017;82;21550;-49
2021/04/04 00:33:50;;;;;;;25.10;13.75;;;;;;;4.60;62.69;99463.12;1693253;82;21117;-48
2021/04/04 00:36:18;;;;;;;26.23;15.00;;;;;;;4.59;62.94;99465.38;1692821;82;21093;-48
2021/04/04 00:38:46;;;;;;;31.23;17.20;;;;;;;4.60;63.13;99461.78;1694558;82;21395;-48
2021/04/04 00:41:14;;;;;;;40.33;20.45;;;;;;;4.60;63.38;99461.78;1691255;82;21259;-49
2021/04/04 00:43:45;;;;;;;45.10;23.95;;;;;;;4.56;63.88;99464.59;1693554;82;21197;-48
2021/04/04 00:46:16;;;;;;;46.25;25.50;;;;;;;4.49;64.09;99459.91;1702327;82;21010;-48
2021/04/04 00:48:45;;;;;;;54.75;27.05;;;;;;;4.43;64.83;99456.09;1693279;82;21168;-48
2021/04/04 00:51:14;;;;;;;51.73;26.68;;;;;;;4.40;65.03;99462.84;1696809;82;21390;-48
2021/04/04 00:53:43;;;;;;;45.70;27.35;;;;;;;4.35;65.25;99460.77;1696040;82;21727;-47
2021/04/04 00:56:12;;;;;;;54.83;28.23;;;;;;;4.32;65.63;99468.88;1695625;82;21109;-50
2021/04/04 00:58:41;;;;;;;52.73;26.65;;;;;;;4.32;65.88;99463.55;1695700;82;21001;-49
2021/04/04 01:01:10;;;;;;;48.95;27.98;;;;;;;4.34;65.87;99463.03;1693197;82;21135;-48
2021/04/04 01:03:37;;;;;;;67.35;35.80;;;;;;;4.37;66.09;99469.63;1692405;82;21713;-48
2021/04/04 01:06:07;;;;;;;65.15;34.15;;;;;;;4.37;66.76;99465.63;1693374;82;21708;-48
2021/04/04 01:08:36;;;;;;;63.08;35.15;;;;;;;4.36;67.15;99475.86;1702888;83;21173;-43
2021/04/04 01:11:06;;;;;;;64.15;33.88;;;;;;;4.28;67.83;99477.89;1693694;82;21570;-43
2021/04/04 01:13:57;;;;;;;63.35;33.67;;;;;;;4.18;68.04;99480.82;1701925;82;21120;-44
2021/04/04 01:16:30;;;;;;;64.32;33.95;;;;;;;4.14;68.22;99484.48;1640885;86;21233;-42
2021/04/04 01:19:24;;;;;;;69.47;38.73;;;;;;;4.11;68.82;99486.39;1816495;75;22730;-43
2021/04/04 01:21:58;;;;;;;79.40;43.08;;;;;;;3.99;69.70;99494.72;1770586;79;21010;-42
2021/04/04 01:24:46;;;;;;;77.00;42.17;;;;;;;3.89;70.54;99491.45;1743981;79;21881;-43
2021/04/04 01:27:47;;;;;;;73.70;40.20;;;;;;;3.92;71.33;99491.34;1782082;76;28032;-43
2021/04/04 01:30:16;;;;;;;66.60;37.58;;;;;;;3.90;72.15;99487.86;1760211;78;21053;-43
2021/04/04 01:32:46;;;;;;;60.20;33.73;;;;;;;3.96;72.46;99486.35;1770141;79;21381;-42
2021/04/04 01:35:16;;;;;;;60.58;31.12;;;;;;;4.03;72.90;99483.92;1761582;79;21708;-43
2021/04/04 01:37:44;;;;;;;56.65;31.37;;;;;;;4.09;73.09;99480.20;1763220;79;21005;-42
2021/04/04 01:40:15;;;;;;;56.80;30.97;;;;;;;4.14;73.14;99477.81;1762569;79;21001;-42
2021/04/04 01:42:43;;;;;;;53.15;28.75;;;;;;;4.20;73.32;99481.64;1727902;81;20965;-42
2021/04/04 01:45:11;;;;;;;51.37;27.93;;;;;;;4.23;73.61;99478.02;1716348;81;21372;-44
2021/04/04 01:47:41;;;;;;;47.98;28.05;;;;;;;4.28;73.74;99480.56;1762283;79;21522;-44
2021/04/04 01:50:11;;;;;;;48.15;25.55;;;;;;;4.31;73.93;99484.46;1764427;79;20990;-42
2021/04/04 01:52:39;;;;;;;57.93;31.07;;;;;;;4.35;74.20;99487.46;1733080;80;21001;-42
2021/04/04 01:55:08;;;;;;;59.45;32.20;;;;;;;4.35;74.37;99488.80;1763288;79;21652;-42
2021/04/04 01:57:36;;;;;;;61.02;32.42;;;;;;;4.36;74.55;99486.54;1761054;79;22113;-43
2021/04/04 02:00:12;;;;;;;66.97;32.35;;;;;;;4.36;74.82;99490.08;1766441;79;21171;-43
2021/04/04 02:02:49;;;;;;;59.48;30.92;;;;;;;4.42;74.90;99489.02;1834463;75;22609;-42
2021/04/04 02:05:17;;;;;;;62.17;33.53;;;;;;;4.37;74.72;99493.66;1796724;77;20996;-43
2021/04/04 02:07:48;;;;;;;66.57;32.65;;;;;;;4.32;75.30;99482.23;1795522;77;22394;-43
2021/04/04 02:10:21;;;;;;;55.08;27.87;;;;;;;4.32;75.18;99483.56;1802846;77;20985;-43
2021/04/04 02:12:58;;;;;;;56.00;30.27;;;;;;;4.26;74.19;99473.04;1782015;78;23361;-43
2021/04/04 02:15:29;;;;;;;59.95;31.48;;;;;;;4.02;73.56;99475.97;1747983;79;20969;-42
2021/04/04 02:17:57;;;;;;;55.03;29.77;;;;;;;3.84;73.74;99484.91;1748952;80;21469;-43
2021/04/04 02:20:27;;;;;;;57.00;29.70;;;;;;;3.72;74.12;99493.67;1751693;80;20977;-42
2021/04/04 02:22:55;;;;;;;48.63;26.73;;;;;;;3.67;74.60;99500.03;1752297;80;21025;-41
2021/04/04 02:25:22;;;;;;;46.80;26.70;;;;;;;3.67;75.35;99493.36;1739771;80;20978;-43
2021/04/04 02:27:52;;;;;;;51.13;29.63;;;;;;;3.68;75.45;99493.77;1748163;79;20993;-42
2021/04/04 02:30:20;;;;;;;54.85;27.32;;;;;;;3.68;75.86;99491.11;1749623;79;22118;-43
2021/04/04 02:33:00;;;;;;;49.60;27.15;;;;;;;3.76;76.34;99495.35;1749931;79;21001;-42
2021/04/04 02:35:37;;;;;;;52.75;27.73;;;;;;;3.83;76.35;99491.59;1749646;79;21510;-42
2021/04/04 02:38:16;;;;;;;46.20;24.18;;;;;;;3.90;76.50;99483.86;1749822;80;21006;-43
2021/04/04 02:40:45;;;;;;;47.00;24.63;;;;;;;3.94;76.61;99485.07;1750302;79;21534;-43
2021/04/04 02:43:20;;;;;;;41.50;22.20;;;;;;;3.97;76.54;99483.22;1749848;79;22269;-42
2021/04/04 02:45:48;;;;;;;41.92;21.35;;;;;;;4.02;76.71;99487.52;1749703;80;20997;-42
2021/04/04 02:48:18;;;;;;;37.00;20.02;;;;;;;4.05;76.79;99487.44;1725051;79;20989;-43
2021/04/04 02:50:47;;;;;;;35.52;18.80;;;;;;;4.08;77.02;99487.34;1750692;79;21164;-45
2021/04/04 02:53:16;;;;;;;29.90;17.52;;;;;;;4.08;77.36;99480.66;1752780;79;20973;-45
2021/04/04 02:55:44;;;;;;;24.72;13.83;;;;;;;4.12;77.84;99486.34;1747947;80;21393;-46
2021/04/04 02:58:12;;;;;;;19.25;12.15;;;;;;;4.15;77.82;99488.91;1716267;80;21632;-46
2021/04/04 03:00:40;;;;;;;30.25;14.23;;;;;;;4.19;77.38;99477.23;1747354;79;21128;-46
2021/04/04 03:03:09;;;;;;;31.60;15.80;;;;;;;4.26;77.11;99475.71;1752037;79;21636;-44
2021/04/04 03:05:37;;;;;;;26.68;14.28;;;;;;;4.27;77.17;99473.48;1747957;79;20961;-45
2021/04/04 03:08:06;;;;;;;17.12;10.72;;;;;;;4.18;76.49;99467.48;1718204;80;21362;-44
2021/04/04 03:10:34;;;;;;;19.23;9.98;;;;;;;4.06;75.25;99472.30;1747511;79;21207;-44
2021/04/04 03:13:03;;;;;;;16.42;8.75;;;;;;;4.02;75.23;99470.17;1740834;79;21136;-44
2021/04/04 03:15:31;;;;;;;20.60;10.45;;;;;;;4.07;75.20;99476.72;1737970;81;21547;-45
2021/04/04 03:17:59;;;;;;;14.20;9.23;;;;;;;4.11;74.85;99473.92;1716348;79;21125;-45
2021/04/04 03:20:27;;;;;;;19.55;10.18;;;;;;;4.12;74.44;99471.66;1739894;79;21559;-46
2021/04/04 03:22:55;;;;;;;17.73;9.63;;;;;;;4.12;74.55;99475.66;1738773;79;21897;-45
2021/04/04 03:25:23;;;;;;;13.50;9.15;;;;;;;4.16;75.19;99476.00;1737870;81;21200;-45
2021/04/04 03:27:51;;;;;;;15.32;8.28;;;;;;;4.22;75.73;99470.07;1738504;79;21617;-46
2021/04/04 03:33:06;;;;;;;15.20;7.97;;;;;;;4.31;75.66;99476.45;1740656;80;22337;-45
2021/04/04 03:35:34;;;;;;;12.47;7.80;;;;;;;4.33;75.68;99482.18;1740132;80;21566;-45
2021/04/04 03:38:03;;;;;;;14.80;8.43;;;;;;;4.35;75.68;99487.46;1739382;79;21022;-46
2021/04/04 03:40:31;;;;;;;15.98;8.78;;;;;;;4.30;75.64;99494.73;1737129;81;21609;-45
2021/04/04 03:43:01;;;;;;;18.23;9.23;;;;;;;4.28;75.55;99488.57;1739892;81;21635;-47
2021/04/04 03:45:29;;;;;;;16.50;8.88;;;;;;;4.27;75.50;99501.51;1698731;81;21379;-48
2021/04/04 03:47:58;;;;;;;16.60;8.85;;;;;;;4.27;75.77;99501.51;1737829;80;21598;-48
2021/04/04 03:50:26;;;;;;;19.32;9.38;;;;;;;4.28;76.09;99501.92;1738101;80;20971;-46
2021/04/04 03:52:54;;;;;;;20.40;10.30;;;;;;;4.24;76.08;99503.79;1737534;80;21129;-48
2021/04/04 03:55:23;;;;;;;18.45;10.95;;;;;;;4.22;76.23;99512.77;1739720;80;20998;-48
2021/04/04 03:57:51;;;;;;;16.45;9.60;;;;;;;4.15;76.65;99511.59;1746007;79;21663;-48
2021/04/04 04:00:22;;;;;;;15.10;8.20;;;;;;;4.09;76.77;99519.77;1739052;79;21038;-47
2021/04/04 04:02:50;;;;;;;16.67;8.60;;;;;;;4.07;76.85;99517.61;1737626;81;21137;-48
2021/04/04 04:05:19;;;;;;;15.95;9.08;;;;;;;4.07;76.95;99520.74;1739931;79;20979;-47
2021/04/04 04:07:47;;;;;;;11.85;6.65;;;;;;;4.09;77.04;99509.09;1739194;79;21399;-46
2021/04/04 04:10:16;;;;;;;12.68;7.17;;;;;;;4.14;76.57;99503.17;1740166;79;21331;-48
2021/04/04 04:12:45;;;;;;;11.80;7.20;;;;;;;4.23;76.24;99503.84;1736487;80;21006;-47
2021/04/04 04:15:14;;;;;;;11.85;7.45;;;;;;;4.27;75.96;99505.05;1735522;80;21005;-47
2021/04/04 04:17:45;;;;;;;12.60;7.55;;;;;;;4.29;75.88;99504.53;1737820;80;21156;-49
2021/04/04 04:20:14;;;;;;;11.12;7.15;;;;;;;4.31;75.78;99507.15;1735927;80;20986;-48
2021/04/04 04:22:42;;;;;;;13.20;7.37;;;;;;;4.37;75.80;99513.67;1738021;79;21367;-47
2021/04/04 04:25:11;;;;;;;10.63;6.10;;;;;;;4.39;75.82;99515.83;1739921;80;21030;-48
2021/04/04 04:27:41;;;;;;;12.47;7.53;;;;;;;4.43;75.65;99518.83;1739266;80;20990;-47
2021/04/04 04:30:09;;;;;;;8.78;5.92;;;;;;;4.43;75.73;99529.51;1738050;79;21109;-47
2021/04/04 04:32:40;;;;;;;10.98;6.53;;;;;;;4.42;75.79;99537.08;1742615;81;20982;-49
2021/04/04 04:35:09;;;;;;;9.98;6.30;;;;;;;4.44;75.80;99540.60;1739654;79;21384;-49
2021/04/04 04:37:39;;;;;;;8.55;5.83;;;;;;;4.42;75.83;99537.08;1738220;79;21142;-50
2021/04/04 04:40:10;;;;;;;11.25;6.25;;;;;;;4.40;76.01;99541.60;1741675;80;21005;-49
2021/04/04 04:42:41;;;;;;;12.88;6.50;;;;;;;4.40;76.08;99547.81;1741966;79;21196;-50
2021/04/04 04:45:18;;;;;;;9.70;6.00;;;;;;;4.42;76.01;99549.09;1737928;81;21085;-50
2021/04/04 04:47:53;;;;;;;10.30;6.35;;;;;;;4.49;76.02;99548.02;1793896;76;23419;-48
2021/04/04 04:50:22;;;;;;;11.70;6.45;;;;;;;4.44;76.14;99551.28;1727109;80;21025;-51
2021/04/04 04:52:50;;;;;;;10.43;6.83;;;;;;;4.44;76.12;99540.60;1758506;79;21256;-47
2021/04/04 04:55:19;;;;;;;9.70;6.92;;;;;;;4.43;76.24;99544.20;1759232;79;21605;-48
2021/04/04 04:57:47;;;;;;;11.60;7.10;;;;;;;4.42;76.51;99541.09;1764124;78;21018;-48
2021/04/04 05:00:16;;;;;;;13.03;6.95;;;;;;;4.43;76.75;99542.86;1758936;79;21029;-49
2021/04/04 05:02:45;;;;;;;11.57;6.53;;;;;;;4.42;77.11;99547.76;1761592;78;20950;-49
2021/04/04 05:05:13;;;;;;;10.08;6.55;;;;;;;4.41;77.52;99550.02;1726662;80;21593;-49
2021/04/04 05:07:43;;;;;;;14.55;7.40;;;;;;;4.40;78.33;99547.81;1760338;78;21357;-48
2021/04/04 05:10:13;;;;;;;11.53;7.28;;;;;;;4.41;78.54;99552.69;1758481;79;21357;-48
2021/04/04 05:12:57;;;;;;;10.35;6.15;;;;;;;4.43;79.00;99552.20;1758898;78;21088;-49
2021/04/04 05:15:26;;;;;;;8.88;5.70;;;;;;;4.46;79.06;99554.31;1761365;79;21031;-49
2021/04/04 05:17:54;;;;;;;11.55;6.90;;;;;;;4.47;79.07;99552.51;1761095;79;22038;-51
2021/04/04 05:20:22;;;;;;;10.23;7.03;;;;;;;4.45;79.04;99552.56;1761402;80;21203;-49
2021/04/04 05:22:50;;;;;;;11.90;5.92;;;;;;;4.46;78.95;99562.78;1760796;79;21517;-49
2021/04/04 05:25:18;;;;;;;11.12;6.22;;;;;;;4.50;78.84;99559.11;1758723;79;20986;-48
2021/04/04 05:27:46;;;;;;;7.58;5.47;;;;;;;4.53;78.77;99572.39;1724995;80;21553;-48
2021/04/04 05:30:15;;;;;;;10.18;5.80;;;;;;;4.52;78.34;99570.61;1762689;79;22112;-48
2021/04/04 05:32:47;;;;;;;9.93;5.85;;;;;;;4.49;78.52;99570.72;1761409;78;21143;-50
2021/04/04 05:35:20;;;;;;;8.40;5.40;;;;;;;4.46;78.64;99565.45;1759725;79;21013;-48
2021/04/04 05:37:53;;;;;;;10.03;6.42;;;;;;;4.49;78.73;99569.84;1759689;79;21613;-48
2021/04/04 05:40:25;;;;;;;10.43;6.42;;;;;;;4.52;78.64;99566.60;1760607;79;21101;-52
2021/04/04 05:43:15;;;;;;;7.50;5.80;;;;;;;4.62;78.61;99566.76;1886313;74;22259;-48
2021/04/04 05:46:06;;;;;;;;;;;;;;;4.63;78.43;99573.84;1865996;76;21020;-49
2021/04/04 05:49:02;;;;;;;10.00;5.83;;;;;;;4.67;78.33;99570.17;1863593;76;21409;-47
2021/04/04 05:51:55;;;;;;;10.75;5.47;;;;;;;4.70;77.93;99583.45;1862880;75;20982;-47
2021/04/04 05:54:29;;;;;;;8.53;5.85;;;;;;;4.71;77.66;99574.51;1863850;76;21040;-48
2021/04/04 05:56:59;;;;;;;10.25;5.87;;;;;;;4.70;77.81;99575.44;1864783;76;21101;-49
2021/04/04 05:59:51;;;;;;;11.05;5.15;;;;;;;4.71;78.06;99571.84;1864177;75;20946;-48
2021/04/04 06:02:49;;;;;;;9.05;5.50;;;;;;;4.82;78.04;99580.00;1808745;78;22763;-49
2021/04/04 06:05:58;;;;;;;12.15;6.17;;;;;;;4.79;78.06;99584.08;1781970;79;21128;-49
2021/04/04 06:09:10;;;;;;;8.35;5.37;;;;;;;4.84;78.05;99594.17;1782082;79;22039;-49
2021/04/04 06:12:11;;;;;;;6.97;4.90;;;;;;;4.85;78.16;99591.48;1781616;79;21039;-48
2021/04/04 06:15:02;;;;;;;8.78;5.75;;;;;;;4.86;78.34;99596.36;1780718;79;21482;-48
2021/04/04 06:17:52;;;;;;;15.35;6.47;;;;;;;4.92;78.69;99590.37;1823832;76;23757;-48
2021/04/04 06:20:42;;;;;;;10.03;6.30;;;;;;;4.90;78.93;99598.91;1788356;77;21616;-48
2021/04/04 06:23:32;;;;;;;11.85;6.40;;;;;;;4.91;79.05;99607.80;1730333;80;21228;-49
2021/04/04 06:26:39;;;;;;;10.88;5.20;;;;;;;4.95;79.15;99596.06;1811320;76;22703;-48
2021/04/04 06:29:25;;;;;;;10.45;5.78;;;;;;;4.97;79.24;99598.25;1760339;79;20989;-49
2021/04/04 06:32:07;;;;;;;10.45;6.20;;;;;;;5.04;79.20;99601.14;1759339;79;22281;-47
2021/04/04 06:34:47;;;;;;;8.40;5.22;;;;;;;5.12;79.00;99606.27;1758744;79;20993;-48
2021/04/04 06:37:24;;;;;;;12.10;5.78;;;;;;;5.16;78.86;99607.44;1757284;79;21585;-48
2021/04/04 06:40:14;;;;;;;8.95;6.33;;;;;;;5.16;78.89;99611.45;1758641;79;21029;-48
2021/04/04 06:43:20;;;;;;;12.23;5.60;;;;;;;5.15;79.11;99615.05;1764134;79;20930;-48
2021/04/04 06:46:23;;;;;;;9.35;6.37;;;;;;;5.13;78.96;99608.89;1757310;79;21393;-47
2021/04/04 06:49:33;;;;;;;10.72;5.80;;;;;;;5.16;79.15;99612.79;1758127;79;21069;-48
2021/04/04 06:52:24;;;;;;;7.65;5.70;;;;;;;5.24;79.08;99617.45;1762916;79;20953;-50
2021/04/04 06:55:12;;;;;;;8.70;5.72;;;;;;;5.34;79.03;99613.17;1758982;79;20997;-48
2021/04/04 06:58:18;;;;;;;12.18;5.08;;;;;;;5.39;78.78;99617.91;1757687;79;21138;-49
2021/04/04 07:01:00;;;;;;;9.43;5.70;;;;;;;5.46;78.61;99618.13;1761232;79;22316;-49
2021/04/04 07:03:31;;;;;;;8.53;5.80;;;;;;;5.58;78.55;99619.06;1760887;78;21576;-48
2021/04/04 07:06:20;;;;;;;7.67;5.47;;;;;;;5.71;78.33;99619.56;1758980;79;21071;-47
2021/04/04 07:09:02;;;;;;;7.05;5.03;;;;;;;5.81;77.70;99625.49;1756714;79;22115;-49
2021/04/04 07:11:46;;;;;;;6.58;4.55;;;;;;;5.92;76.64;99623.36;1786902;77;23296;-47
2021/04/04 07:14:53;;;;;;;7.75;4.60;;;;;;;5.90;75.68;99628.71;1763861;79;21001;-42
2021/04/04 07:17:55;;;;;;;6.17;4.20;;;;;;;5.91;75.69;99625.56;1700840;79;21023;-41
2021/04/04 07:20:51;;;;;;;6.05;4.35;;;;;;;6.06;74.58;99627.77;1825222;75;22690;-47
2021/04/04 07:23:43;;;;;;;7.30;5.05;;;;;;;5.96;73.97;99641.05;1759366;79;21057;-43
2021/04/04 07:26:36;;;;;;;9.23;5.40;;;;;;;5.96;74.08;99635.23;1762916;78;21474;-42
2021/04/04 07:29:18;;;;;;;9.35;4.55;;;;;;;6.02;73.75;99634.18;1755795;80;21544;-43
2021/04/04 07:31:55;;;;;;;10.30;5.00;;;;;;;6.11;73.86;99627.15;1696394;82;21482;-44
2021/04/04 07:34:24;;;;;;;8.53;5.47;;;;;;;6.23;73.57;99626.75;1759304;80;21254;-44
2021/04/04 07:37:10;;;;;;;7.08;4.90;;;;;;;6.34;73.29;99625.47;1683567;83;21617;-44
2021/04/04 07:39:45;;;;;;;7.00;5.10;;;;;;;6.45;72.94;99630.02;1751517;80;22170;-44
2021/04/04 07:42:25;;;;;;;7.85;5.45;;;;;;;6.54;72.85;99633.69;1693430;82;21087;-46
2021/04/04 07:45:19;;;;;;;11.60;6.00;;;;;;;6.54;71.52;99647.08;1758241;80;21579;-44
2021/04/04 07:48:27;;;;;;;7.80;5.58;;;;;;;6.51;71.69;99647.20;1758378;79;21131;-42
2021/04/04 07:51:12;;;;;;;9.43;6.47;;;;;;;6.58;71.35;99635.33;1804660;78;23410;-42
2021/04/04 07:54:10;;;;;;;9.88;6.75;;;;;;;6.58;71.31;99640.69;1762426;79;21152;-45
2021/04/04 07:56:55;;;;;;;8.85;5.83;;;;;;;6.61;71.59;99640.59;1773634;79;22321;-44
2021/04/04 07:59:42;;;;;;;8.10;5.78;;;;;;;6.66;71.94;99648.44;1746190;80;21009;-44
2021/04/04 08:02:32;;;;;;;9.65;6.35;;;;;;;6.65;72.33;99642.21;1819361;77;22256;-43
2021/04/04 08:05:09;;;;;;;8.18;6.45;;;;;;;6.56;72.53;99645.24;1785972;79;20965;-44
2021/04/04 08:08:02;;;;;;;7.37;5.22;;;;;;;6.55;72.62;99643.47;1720266;82;21406;-44
2021/04/04 08:11:00;;;;;;;7.95;5.25;;;;;;;6.64;72.43;99640.47;1811237;78;22732;-44
2021/04/04 08:13:35;;;;;;;8.53;5.67;;;;;;;6.65;72.42;99646.23;1716475;83;21279;-44
2021/04/04 08:16:30;;;;;;;6.85;4.83;;;;;;;6.75;72.12;99639.61;1802152;78;23389;-46
2021/04/04 08:19:05;;;;;;;5.67;4.92;;;;;;;6.76;71.85;99637.33;1859883;76;23325;-43
2021/04/04 08:21:38;;;;;;;6.95;4.80;;;;;;;6.76;71.66;99641.35;1850614;74;20997;-43
2021/04/04 08:24:15;;;;;;;6.00;4.40;;;;;;;6.75;70.87;99643.63;1821547;76;21335;-45
2021/04/04 08:27:14;;;;;;;8.80;4.67;;;;;;;6.74;70.79;99645.91;1831489;76;20949;-44
2021/04/04 08:30:11;;;;;;;7.90;4.53;;;;;;;6.82;70.40;99634.45;1835930;74;27856;-44
2021/04/04 08:32:54;;;;;;;8.13;4.92;;;;;;;6.84;70.55;99629.03;1793514;77;20989;-42
2021/04/04 08:35:28;;;;;;;9.70;4.20;;;;;;;6.93;70.44;99633.19;1799725;77;21350;-43
2021/04/04 08:38:16;;;;;;;6.67;5.03;;;;;;;7.00;70.33;99634.70;1794574;77;20997;-45
2021/04/04 08:40:45;;;;;;;7.60;4.50;;;;;;;7.09;69.87;99634.36;1799122;77;20989;-44
2021/04/04 08:43:13;;;;;;;7.45;5.22;;;;;;;7.16;69.74;99635.86;1791593;77;21680;-42
2021/04/04 08:46:22;;;;;;;6.95;5.22;;;;;;;7.25;69.91;99633.30;1798959;77;21032;-45
2021/04/04 08:48:52;;;;;;;6.12;4.75;;;;;;;7.38;69.38;99640.39;1795179;78;21608;-44
2021/04/04 08:51:24;;;;;;;8.75;4.92;;;;;;;7.51;68.39;99631.81;1790261;78;20965;-44
2021/04/04 08:53:52;;;;;;;6.12;4.67;;;;;;;7.60;68.09;99625.19;1793928;77;20973;-47
2021/04/04 08:56:20;;;;;;;7.67;5.10;;;;;;;7.69;67.44;99638.25;1795303;77;21120;-48
2021/04/04 08:58:55;;;;;;;6.97;5.45;;;;;;;7.67;67.22;99635.20;1793203;77;21099;-43
2021/04/04 09:01:38;;;;;;;6.28;4.80;;;;;;;7.57;66.47;99634.25;1791545;78;21359;-45
2021/04/04 09:04:08;;;;;;;7.20;5.40;;;;;;;7.47;66.69;99638.23;1802382;77;21014;-44
2021/04/04 09:06:41;;;;;;;7.12;5.70;;;;;;;7.39;67.81;99634.09;1799416;78;20992;-45
2021/04/04 09:09:27;;;;;;;7.58;4.87;;;;;;;7.27;69.07;99626.93;1800477;77;21001;-44
2021/04/04 09:12:00;;;;;;;8.33;5.08;;;;;;;7.22;70.01;99628.91;1799842;77;20941;-47
2021/04/04 09:14:36;;;;;;;7.90;5.20;;;;;;;7.20;70.54;99639.31;1801807;77;22003;-44
2021/04/04 09:17:12;;;;;;;5.67;4.97;;;;;;;7.08;69.97;99650.02;1797711;77;21159;-44
2021/04/04 09:19:45;;;;;;;8.55;5.37;;;;;;;6.82;70.44;99647.86;1800428;77;21124;-43
2021/04/04 09:22:21;;;;;;;4.95;4.47;;;;;;;6.49;71.29;99651.72;1792237;78;21648;-44
2021/04/04 09:25:02;;;;;;;7.58;4.55;;;;;;;6.28;71.75;99651.57;1797793;77;20998;-48
2021/04/04 09:27:38;;;;;;;9.28;5.42;;;;;;;6.06;71.34;99653.20;1778015;77;21389;-43
2021/04/04 09:30:23;;;;;;;4.85;4.10;;;;;;;5.93;71.81;99649.20;1805990;76;23364;-52
2021/04/04 09:32:56;;;;;;;6.60;4.70;;;;;;;5.82;72.29;99653.99;1760085;79;21053;-43
2021/04/04 09:35:23;;;;;;;5.45;3.77;;;;;;;5.78;72.71;99662.11;1751353;79;21416;-43
2021/04/04 09:37:56;;;;;;;5.30;3.70;;;;;;;5.72;73.53;99643.58;1720454;80;21009;-44
2021/04/04 09:40:24;;;;;;;;;;;;;;;5.75;74.15;99653.30;1750199;80;21352;-45
2021/04/04 09:42:53;;;;;;;6.40;4.45;;;;;;;5.70;74.28;99648.12;1749408;79;20290;-44
2021/04/04 09:45:22;;;;;;;5.05;4.10;;;;;;;5.71;74.43;99647.19;1750486;79;20974;-43
2021/04/04 09:47:51;;;;;;;9.05;3.95;;;;;;;5.68;74.69;99643.26;1749205;79;21513;-44
2021/04/04 09:50:23;;;;;;;4.78;4.25;;;;;;;5.59;75.72;99652.03;1754475;80;21057;-46
2021/04/04 09:52:52;;;;;;;;;;;;;;;5.49;76.39;99650.14;1752047;80;21077;-45
2021/04/04 09:55:22;;;;;;;7.45;4.97;;;;;;;5.47;77.77;99645.27;1749043;79;20268;-44
2021/04/04 09:57:55;;;;;;;7.62;5.37;;;;;;;5.36;80.34;99650.08;1746399;79;21009;-43
2021/04/04 10:00:30;;;;;;;7.05;5.17;;;;;;;5.24;81.66;99646.86;1748861;80;21176;-43
2021/04/04 10:03:13;;;;;;;6.17;5.20;;;;;;;5.14;82.21;99642.72;1754305;79;20974;-44
2021/04/04 10:05:44;;;;;;;5.95;5.08;;;;;;;5.12;83.27;99647.24;1759283;79;20988;-42
2021/04/04 10:08:21;;;;;;;7.72;5.90;;;;;;;5.10;83.66;99647.73;1750824;79;21231;-44
2021/04/04 10:10:54;;;;;;;9.25;6.00;;;;;;;5.10;84.94;99646.39;1752349;79;21542;-45
2021/04/04 10:13:28;;;;;;;8.28;6.50;;;;;;;5.10;85.12;99643.72;1751583;80;22266;-43
2021/04/04 10:15:57;;;;;;;8.18;7.17;;;;;;;5.09;84.71;99647.31;1751517;79;21562;-44
2021/04/04 10:18:25;;;;;;;7.70;6.83;;;;;;;5.11;84.63;99634.77;1751384;80;20978;-43
2021/04/04 10:20:56;;;;;;;7.92;6.55;;;;;;;5.16;84.29;99635.51;1750322;80;21148;-43
2021/04/04 10:23:32;;;;;;;7.37;6.62;;;;;;;5.29;85.02;99635.16;1754379;79;21050;-44
2021/04/04 10:26:07;;;;;;;8.93;6.80;;;;;;;5.41;84.35;99632.09;1758130;79;21582;-45
2021/04/04 10:28:47;;;;;;;10.40;7.85;;;;;;;5.51;84.54;99623.73;1752508;79;21649;-51
2021/04/04 10:31:17;;;;;;;9.65;6.65;;;;;;;5.64;84.29;99624.67;1756084;79;21147;-44
2021/04/04 10:33:45;;;;;;;10.78;7.22;;;;;;;5.71;82.33;99620.43;1756703;79;21446;-45
2021/04/04 10:36:17;;;;;;;11.08;8.38;;;;;;;5.82;81.57;99623.22;1751473;79;21270;-44
2021/04/04 10:38:45;;;;;;;10.40;8.33;;;;;;;5.95;81.88;99620.56;1757860;79;21344;-47
2021/04/04 10:41:18;;;;;;;8.83;7.50;;;;;;;6.09;80.87;99615.62;1757028;79;21809;-46
2021/04/04 10:43:54;;;;;;;8.68;7.25;;;;;;;6.26;79.27;99615.92;1828863;76;23737;-45
2021/04/04 10:46:26;;;;;;;8.40;7.47;;;;;;;6.38;79.27;99624.44;1798296;78;21064;-43
2021/04/04 10:49:04;;;;;;;10.18;6.95;;;;;;;6.60;77.52;99618.72;1818781;75;22692;-45
2021/04/04 10:51:34;;;;;;;7.90;6.67;;;;;;;6.70;76.74;99618.80;1788697;78;21005;-47
2021/04/04 10:54:03;;;;;;;7.78;6.65;;;;;;;6.79;76.02;99621.16;1780375;78;21387;-45
2021/04/04 10:56:31;;;;;;;6.95;6.15;;;;;;;6.83;73.84;99620.12;1750319;80;21032;-48
2021/04/04 10:59:00;;;;;;;6.70;6.10;;;;;;;6.82;72.57;99623.73;1779075;80;21554;-47
2021/04/04 11:01:31;;;;;;;7.45;5.85;;;;;;;6.80;71.83;99614.86;1782264;78;20954;-47
2021/04/04 11:04:00;;;;;;;8.20;6.87;;;;;;;6.83;71.25;99619.24;1781323;80;21021;-47
2021/04/04 11:06:30;;;;;;;8.23;6.77;;;;;;;6.87;71.26;99609.27;1781535;79;21936;-47
2021/04/04 11:08:59;;;;;;;7.28;6.45;;;;;;;6.96;71.05;99606.24;1781930;80;21061;-46
2021/04/04 11:11:27;;;;;;;7.53;5.95;;;;;;;7.06;71.12;99604.96;1752264;80;21006;-49
2021/04/04 11:13:55;;;;;;;7.95;5.80;;;;;;;7.17;69.80;99600.05;1782828;79;21518;-45
2021/04/04 11:16:25;;;;;;;6.90;5.80;;;;;;;7.24;69.15;99601.55;1782259;79;21128;-47
2021/04/04 11:18:56;;;;;;;5.97;4.97;;;;;;;7.28;68.82;99596.48;1727704;80;21458;-46
2021/04/04 11:21:27;;;;;;;8.28;5.42;;;;;;;7.34;67.81;99600.73;1780813;79;21345;-45
2021/04/04 11:23:55;;;;;;;5.53;4.37;;;;;;;7.38;67.12;99592.11;1780239;79;20978;-45
2021/04/04 11:26:37;;;;;;;5.92;4.65;;;;;;;7.42;66.02;99595.08;1780408;80;21195;-47
2021/04/04 11:29:16;;;;;;;6.58;4.70;;;;;;;7.44;65.57;99592.73;1781732;80;21593;-47
2021/04/04 11:31:49;;;;;;;7.95;5.35;;;;;;;7.49;65.26;99582.69;1780874;80;21390;-48
2021/04/04 11:34:35;;;;;;;9.45;5.58;;;;;;;7.53;65.10;99584.79;1782056;78;21459;-45
2021/04/04 11:37:05;;;;;;;11.65;6.47;;;;;;;7.54;64.62;99581.16;1781625;80;21116;-45
2021/04/04 11:39:34;;;;;;;9.58;6.97;;;;;;;7.58;65.03;99580.11;1781278;80;21125;-46
2021/04/04 11:42:04;;;;;;;12.03;7.95;;;;;;;7.63;64.74;99579.45;1782544;80;21112;-46
2021/04/04 11:44:38;;;;;;;6.58;5.87;;;;;;;7.70;64.90;99580.94;1780919;80;21384;-46
2021/04/04 11:47:18;;;;;;;5.67;4.53;;;;;;;7.76;63.61;99578.00;1780707;79;21609;-49
2021/04/04 11:49:57;;;;;;;6.70;5.20;;;;;;;7.86;63.49;99579.36;1780140;80;21120;-45
2021/04/04 11:52:35;;;;;;;6.03;5.10;;;;;;;8.05;63.36;99570.55;1784066;78;22870;-46
2021/04/04 11:55:04;;;;;;;8.03;4.70;;;;;;;8.06;63.74;99577.66;1753853;79;21584;-46
2021/04/04 11:57:35;;;;;;;6.75;5.85;;;;;;;8.07;60.96;99574.02;1759227;79;21246;-48
2021/04/04 12:00:07;;;;;;;;;;;;;;;8.04;61.21;99572.80;1757272;79;20958;-46
2021/04/04 12:02:37;;;;;;;6.87;6.15;;;;;;;7.99;61.89;99585.55;1752047;79;20673;-46
2021/04/04 12:05:09;;;;;;;7.33;6.20;;;;;;;7.90;62.68;99581.93;1751897;79;21041;-50
2021/04/04 12:07:55;;;;;;;7.00;5.33;;;;;;;7.78;62.88;99574.80;1753642;80;20946;-52
2021/04/04 12:10:34;;;;;;;8.03;6.40;;;;;;;7.76;63.09;99580.68;1808767;77;22788;-52
2021/04/04 12:13:03;;;;;;;9.98;5.90;;;;;;;7.63;63.62;99586.16;1788820;77;20966;-52
2021/04/04 12:15:31;;;;;;;6.78;5.20;;;;;;;7.49;63.76;99581.81;1788350;77;21419;-52
2021/04/04 12:18:00;;;;;;;6.70;5.40;;;;;;;7.38;63.25;99588.95;1785895;77;20986;-52
2021/04/04 12:20:32;;;;;;;7.25;5.80;;;;;;;7.28;62.88;99587.09;1796891;77;21152;-51